Time;durP1;ratioP1;P1;durP2;ratioP2;P2;SDS_P1;SDS_P2;PMS_P1;PMS_P2;Temp;Humidity;BMP_temperature;BMP_pressure;BME280_temperature;BME280_humidity;BME280_pressure;Samples;Min_cycle;Max_cycle;Signal;HPM_P1;HPM_P2
2022/11/30 00:01:21;;;;;;;47.77;24.80;;;8.10;99.90;;;;;;5054981;28;20202;-68
2022/11/30 00:03:52;;;;;;;48.50;23.50;;;8.10;99.90;;;;;;5059031;28;20237;-68
2022/11/30 00:06:21;;;;;;;43.07;23.70;;;8.20;99.90;;;;;;5065402;28;20223;-68
2022/11/30 00:08:58;;;;;;;41.47;22.37;;;8.10;99.90;;;;;;5058680;28;20503;-69
2022/11/30 00:11:27;;;;;;;41.63;22.90;;;8.10;99.90;;;;;;5048617;28;20238;-67
2022/11/30 00:13:54;;;;;;;40.87;23.53;;;8.10;99.90;;;;;;5066746;28;20304;-67
2022/11/30 00:16:21;;;;;;;48.73;24.57;;;8.10;99.90;;;;;;5062598;28;20210;-67
2022/11/30 00:18:48;;;;;;;45.93;23.43;;;8.10;99.90;;;;;;5061736;28;20197;-69
2022/11/30 00:21:14;;;;;;;48.30;25.93;;;8.00;99.90;;;;;;5064630;28;20197;-67
2022/11/30 00:23:43;;;;;;;43.03;22.57;;;8.00;99.90;;;;;;5065693;28;20209;-68
2022/11/30 00:26:13;;;;;;;45.40;24.33;;;8.00;99.90;;;;;;5067270;28;20209;-68
2022/11/30 00:28:41;;;;;;;47.17;24.33;;;7.90;99.90;;;;;;5077324;28;20319;-67
2022/11/30 00:31:15;;;;;;;49.43;25.03;;;7.90;99.90;;;;;;5063505;28;20210;-69
2022/11/30 00:33:43;;;;;;;51.13;25.47;;;7.90;99.90;;;;;;5045757;28;20683;-67
2022/11/30 00:36:12;;;;;;;49.40;24.43;;;7.90;99.90;;;;;;5058990;28;20603;-67
2022/11/30 00:38:39;;;;;;;48.43;25.20;;;7.90;99.90;;;;;;5072980;28;20331;-68
2022/11/30 00:41:06;;;;;;;51.43;25.83;;;7.90;99.90;;;;;;5059532;28;20193;-67
2022/11/30 00:43:33;;;;;;;50.93;24.97;;;7.90;99.90;;;;;;5063156;28;20225;-67
2022/11/30 00:46:00;;;;;;;48.53;25.57;;;7.90;99.90;;;;;;5062005;28;20198;-68
2022/11/30 00:48:26;;;;;;;51.70;26.07;;;7.80;99.90;;;;;;5060664;28;20729;-68
2022/11/30 00:50:56;;;;;;;45.17;24.30;;;7.80;99.90;;;;;;5061865;28;20268;-67
2022/11/30 00:53:23;;;;;;;48.57;26.20;;;7.80;99.90;;;;;;5081488;28;20193;-68
2022/11/30 00:55:50;;;;;;;47.90;24.50;;;7.90;99.90;;;;;;5060817;28;20588;-68
2022/11/30 00:58:17;;;;;;;45.73;25.40;;;7.90;99.90;;;;;;5060034;28;20220;-67
2022/11/30 01:00:44;;;;;;;51.33;24.90;;;7.90;99.90;;;;;;5061179;28;20309;-68
2022/11/30 01:03:11;;;;;;;54.53;26.20;;;7.80;99.90;;;;;;5060098;28;20206;-69
2022/11/30 01:05:40;;;;;;;47.43;24.20;;;7.80;99.90;;;;;;5058253;28;20617;-68
2022/11/30 01:08:09;;;;;;;48.77;26.43;;;7.80;99.90;;;;;;5062896;28;20641;-68
2022/11/30 01:10:37;;;;;;;51.13;26.07;;;7.80;99.90;;;;;;5064295;28;20211;-68
2022/11/30 01:13:05;;;;;;;48.53;24.33;;;7.80;99.90;;;;;;5063054;28;20304;-69
2022/11/30 01:15:40;;;;;;;50.77;25.17;;;7.80;99.90;;;;;;5047153;28;20221;-69
2022/11/30 01:18:07;;;;;;;53.10;26.17;;;7.80;99.90;;;;;;5060187;28;20310;-69
2022/11/30 01:20:34;;;;;;;50.03;25.37;;;7.80;99.90;;;;;;5055151;28;20674;-68
2022/11/30 01:23:00;;;;;;;51.93;25.53;;;7.80;99.90;;;;;;5058335;28;20193;-67
2022/11/30 01:25:27;;;;;;;52.23;24.10;;;7.80;99.90;;;;;;5058252;28;20218;-68
2022/11/30 01:27:54;;;;;;;47.33;24.13;;;7.80;99.90;;;;;;5061362;28;20261;-68
2022/11/30 01:30:21;;;;;;;50.43;24.50;;;7.80;99.90;;;;;;5062022;28;20302;-67
2022/11/30 01:32:47;;;;;;;51.00;24.03;;;7.80;99.90;;;;;;5059757;28;20208;-68
2022/11/30 01:35:14;;;;;;;52.40;24.97;;;7.80;99.90;;;;;;5063843;28;20228;-69
2022/11/30 01:37:41;;;;;;;50.57;24.53;;;7.70;99.90;;;;;;5056571;28;20233;-68
2022/11/30 01:40:09;;;;;;;51.03;24.43;;;7.70;99.90;;;;;;5055369;28;20657;-67
2022/11/30 01:42:36;;;;;;;47.60;24.37;;;7.60;99.90;;;;;;5056144;28;20639;-68
2022/11/30 01:45:04;;;;;;;50.40;23.37;;;7.60;99.90;;;;;;5057084;28;20205;-68
2022/11/30 01:47:42;;;;;;;54.40;25.20;;;7.50;99.90;;;;;;5061513;28;20205;-68
2022/11/30 01:50:17;;;;;;;53.30;24.20;;;7.50;99.90;;;;;;5055323;28;20215;-68
2022/11/30 01:52:49;;;;;;;46.40;22.67;;;7.50;99.90;;;;;;5047562;28;20284;-67
2022/11/30 01:55:35;;;;;;;48.23;23.77;;;7.40;99.90;;;;;;5057396;28;20233;-68
2022/11/30 01:58:08;;;;;;;48.53;24.03;;;7.30;99.90;;;;;;5058937;28;20318;-67
2022/11/30 02:00:35;;;;;;;54.47;26.30;;;7.30;99.90;;;;;;5064693;28;20244;-68
2022/11/30 02:03:10;;;;;;;50.33;23.07;;;7.20;99.90;;;;;;5060681;28;20200;-68
2022/11/30 02:05:39;;;;;;;54.47;24.17;;;7.20;99.90;;;;;;5057962;28;20208;-68
2022/11/30 02:08:08;;;;;;;50.17;24.70;;;7.10;99.90;;;;;;5057120;28;20217;-67
2022/11/30 02:10:39;;;;;;;53.17;24.20;;;7.00;99.90;;;;;;5056359;28;20588;-68
2022/11/30 02:13:36;;;;;;;49.70;23.13;;;7.00;99.90;;;;;;5064220;28;20759;-67
2022/11/30 02:16:11;;;;;;;56.23;25.63;;;7.00;99.90;;;;;;5062086;28;20306;-67
2022/11/30 02:18:57;;;;;;;58.97;25.17;;;7.00;99.90;;;;;;5041549;28;20208;-68
2022/11/30 02:21:40;;;;;;;56.97;24.87;;;6.90;99.90;;;;;;5062787;28;20671;-67
2022/11/30 02:24:24;;;;;;;58.17;25.87;;;6.90;99.90;;;;;;5062842;28;20207;-68
2022/11/30 02:26:57;;;;;;;57.80;25.57;;;6.90;99.90;;;;;;5058987;28;20315;-67
2022/11/30 02:29:59;;;;;;;64.00;26.47;;;6.90;99.90;;;;;;5057027;28;20198;-67
2022/11/30 02:32:31;;;;;;;62.63;26.27;;;6.90;99.90;;;;;;5058291;28;20658;-68
2022/11/30 02:35:01;;;;;;;60.80;25.60;;;6.80;99.90;;;;;;5061764;28;20230;-67
2022/11/30 02:37:30;;;;;;;63.43;25.83;;;6.80;99.90;;;;;;5060150;28;20278;-68
2022/11/30 02:39:57;;;;;;;61.97;26.53;;;6.90;99.90;;;;;;5065941;28;20311;-68
2022/11/30 02:42:24;;;;;;;60.87;26.60;;;6.80;99.90;;;;;;5058603;28;20220;-68
2022/11/30 02:44:52;;;;;;;55.93;23.77;;;6.80;99.90;;;;;;5055984;28;20217;-68
2022/11/30 02:47:31;;;;;;;62.07;26.00;;;6.80;99.90;;;;;;5061688;28;20299;-68
2022/11/30 02:50:03;;;;;;;59.33;24.10;;;6.80;99.90;;;;;;5058198;28;20688;-68
2022/11/30 02:52:31;;;;;;;58.20;26.47;;;6.70;99.90;;;;;;5070943;28;20370;-68
2022/11/30 02:55:01;;;;;;;56.53;24.97;;;6.70;99.90;;;;;;5041907;28;20218;-68
2022/11/30 02:57:27;;;;;;;58.17;25.77;;;6.60;99.90;;;;;;5058721;28;20215;-68
2022/11/30 02:59:55;;;;;;;61.60;25.70;;;6.60;99.90;;;;;;5049899;28;20223;-69
2022/11/30 03:02:22;;;;;;;63.67;26.70;;;6.50;99.90;;;;;;5060836;28;20285;-68
2022/11/30 03:04:49;;;;;;;61.97;26.03;;;6.50;99.90;;;;;;5055637;28;20212;-68
2022/11/30 03:07:16;;;;;;;58.33;24.97;;;6.50;99.90;;;;;;5056372;28;20231;-71
2022/11/30 03:09:42;;;;;;;62.83;25.53;;;6.40;99.90;;;;;;5042167;28;20366;-69
2022/11/30 03:12:09;;;;;;;59.97;26.43;;;6.40;99.90;;;;;;5045884;28;20275;-68
2022/11/30 03:14:36;;;;;;;70.13;26.50;;;6.40;99.90;;;;;;5057751;28;20229;-68
2022/11/30 03:17:04;;;;;;;72.60;27.17;;;6.40;99.90;;;;;;5057251;28;20212;-68
2022/11/30 03:19:31;;;;;;;63.73;25.90;;;6.40;99.90;;;;;;5058594;28;20775;-69
2022/11/30 03:21:58;;;;;;;57.03;25.50;;;6.30;99.90;;;;;;5060723;28;20677;-68
2022/11/30 03:24:25;;;;;;;54.23;23.13;;;6.30;99.90;;;;;;5062399;28;20206;-68
2022/11/30 03:26:52;;;;;;;53.77;24.13;;;6.20;99.90;;;;;;5059345;28;20224;-68
2022/11/30 03:29:18;;;;;;;48.80;21.17;;;6.10;99.90;;;;;;5056955;28;20213;-68
2022/11/30 03:31:45;;;;;;;57.27;23.67;;;6.10;99.90;;;;;;5059579;28;20204;-69
2022/11/30 03:34:12;;;;;;;65.23;25.37;;;6.00;99.90;;;;;;5053907;28;20644;-68
2022/11/30 03:36:39;;;;;;;67.60;25.47;;;5.90;99.90;;;;;;5055705;28;20245;-67
2022/11/30 03:39:05;;;;;;;59.83;24.03;;;5.80;99.90;;;;;;5054136;28;20212;-68
2022/11/30 03:41:32;;;;;;;60.70;25.33;;;5.80;99.90;;;;;;5063015;28;20221;-68
2022/11/30 03:43:59;;;;;;;58.93;24.83;;;5.80;99.90;;;;;;5059379;28;20209;-68
2022/11/30 03:46:26;;;;;;;59.43;25.47;;;5.70;99.90;;;;;;5059947;28;20209;-68
2022/11/30 03:48:53;;;;;;;64.87;26.53;;;5.70;99.90;;;;;;5060845;28;20201;-67
2022/11/30 03:51:20;;;;;;;67.37;26.07;;;5.60;99.90;;;;;;5059429;28;20295;-68
2022/11/30 03:53:47;;;;;;;65.80;26.07;;;5.60;99.90;;;;;;5048814;28;20668;-69
2022/11/30 03:56:14;;;;;;;74.83;26.63;;;5.60;99.90;;;;;;5060217;28;20336;-68
2022/11/30 03:58:41;;;;;;;73.77;28.23;;;5.50;99.90;;;;;;5048185;28;20234;-68
2022/11/30 04:01:14;;;;;;;79.13;29.80;;;5.50;99.90;;;;;;5064627;28;20212;-69
2022/11/30 04:03:41;;;;;;;91.50;30.33;;;5.50;99.90;;;;;;5062351;28;20311;-68
2022/11/30 04:06:10;;;;;;;76.70;30.70;;;5.40;99.90;;;;;;5063633;28;20327;-68
2022/11/30 04:08:37;;;;;;;81.53;31.60;;;5.40;99.90;;;;;;5059260;28;20293;-68
2022/11/30 04:11:05;;;;;;;80.37;31.27;;;5.40;99.90;;;;;;5042949;28;20395;-69
2022/11/30 04:13:32;;;;;;;91.90;32.20;;;5.30;99.90;;;;;;5067638;28;20311;-68
2022/11/30 04:15:59;;;;;;;102.83;35.60;;;5.30;99.90;;;;;;5048820;28;20248;-68
2022/11/30 04:18:28;;;;;;;96.00;36.17;;;5.30;99.90;;;;;;5058624;28;20374;-67
2022/11/30 04:20:57;;;;;;;114.17;38.57;;;5.30;99.90;;;;;;5064873;28;20207;-69
2022/11/30 04:23:27;;;;;;;98.23;34.03;;;5.30;99.90;;;;;;5050033;28;20200;-68
2022/11/30 04:25:55;;;;;;;99.33;35.60;;;5.20;99.90;;;;;;5061198;28;20201;-67
2022/11/30 04:28:22;;;;;;;101.87;35.67;;;5.20;99.90;;;;;;5060772;28;20315;-68
2022/11/30 04:30:49;;;;;;;100.23;34.57;;;5.20;99.90;;;;;;5061677;28;20324;-68
2022/11/30 04:33:16;;;;;;;88.03;31.67;;;5.20;99.90;;;;;;5062451;28;20201;-69
2022/11/30 04:35:47;;;;;;;96.33;35.47;;;5.20;99.90;;;;;;5063131;28;20640;-68
2022/11/30 04:38:14;;;;;;;95.13;33.23;;;5.10;99.90;;;;;;5060000;28;20236;-67
2022/11/30 04:40:42;;;;;;;106.53;34.67;;;5.10;99.90;;;;;;5061322;28;20201;-67
2022/11/30 04:43:09;;;;;;;103.40;33.57;;;5.10;99.90;;;;;;5061995;28;21037;-68
2022/11/30 04:45:36;;;;;;;99.80;34.10;;;5.10;99.90;;;;;;5059877;28;20232;-68
2022/11/30 04:48:04;;;;;;;108.63;34.00;;;5.10;99.90;;;;;;5054937;28;20292;-68
2022/11/30 04:50:31;;;;;;;101.70;33.67;;;5.10;99.90;;;;;;5059840;28;20706;-68
2022/11/30 04:52:58;;;;;;;111.87;34.77;;;5.00;99.90;;;;;;5060277;28;20229;-69
2022/11/30 04:55:25;;;;;;;119.40;34.10;;;5.00;99.90;;;;;;5063590;28;20231;-67
2022/11/30 04:57:52;;;;;;;102.43;31.83;;;5.00;99.90;;;;;;5062172;28;20708;-69
2022/11/30 05:00:19;;;;;;;103.13;32.00;;;5.00;99.90;;;;;;5058811;28;20207;-67
2022/11/30 05:02:46;;;;;;;101.33;31.93;;;5.00;99.90;;;;;;5062430;28;20207;-68
2022/11/30 05:05:18;;;;;;;97.40;31.53;;;5.00;99.90;;;;;;5061075;28;20215;-68
2022/11/30 05:07:56;;;;;;;92.07;31.10;;;5.10;99.90;;;;;;5056831;28;20328;-68
2022/11/30 05:10:24;;;;;;;96.67;30.30;;;5.00;99.90;;;;;;5057945;28;20305;-67
2022/11/30 05:12:51;;;;;;;90.47;27.80;;;5.00;99.90;;;;;;5065842;28;20317;-68
2022/11/30 05:15:18;;;;;;;91.00;29.40;;;5.00;99.90;;;;;;5063413;28;20746;-68
2022/11/30 05:17:45;;;;;;;77.07;26.70;;;4.90;99.90;;;;;;5057940;28;20203;-68
2022/11/30 05:20:11;;;;;;;81.30;26.57;;;4.90;99.90;;;;;;5062141;28;20204;-66
2022/11/30 05:22:38;;;;;;;84.20;28.17;;;4.80;99.90;;;;;;5045498;28;20330;-67
2022/11/30 05:25:05;;;;;;;80.93;27.60;;;4.80;99.90;;;;;;5064001;28;20246;-68
2022/11/30 05:27:32;;;;;;;85.50;27.27;;;4.80;99.90;;;;;;5040359;28;20228;-67
2022/11/30 05:29:59;;;;;;;83.37;27.27;;;4.70;99.90;;;;;;5064869;28;20211;-67
2022/11/30 05:32:26;;;;;;;92.00;28.07;;;4.70;99.90;;;;;;5045534;28;20296;-68
2022/11/30 05:34:52;;;;;;;87.70;27.07;;;4.70;99.90;;;;;;5060840;28;20224;-67
2022/11/30 05:37:20;;;;;;;84.60;25.63;;;4.60;99.90;;;;;;5061968;28;20240;-68
2022/11/30 05:39:46;;;;;;;84.17;24.47;;;4.60;99.90;;;;;;5072733;28;20206;-68
2022/11/30 05:42:14;;;;;;;68.83;23.33;;;4.60;99.90;;;;;;5064067;28;20247;-68
2022/11/30 05:44:41;;;;;;;65.80;23.90;;;4.60;99.90;;;;;;5060437;28;20227;-68
2022/11/30 05:47:09;;;;;;;82.63;26.93;;;4.60;99.90;;;;;;5060131;28;20287;-68
2022/11/30 05:49:36;;;;;;;91.33;27.60;;;4.50;99.90;;;;;;5061156;28;20283;-67
2022/11/30 05:52:02;;;;;;;85.00;28.13;;;4.50;99.90;;;;;;5061914;28;20227;-68
2022/11/30 05:54:29;;;;;;;95.40;27.67;;;4.50;99.90;;;;;;5044601;28;20299;-67
2022/11/30 05:56:56;;;;;;;93.43;29.30;;;4.50;99.90;;;;;;5059212;28;20243;-68
2022/11/30 05:59:23;;;;;;;82.83;27.97;;;4.50;99.90;;;;;;5060022;28;20233;-68
2022/11/30 06:01:52;;;;;;;102.77;28.57;;;4.50;99.90;;;;;;5061964;28;20910;-67
2022/11/30 06:04:20;;;;;;;93.63;29.20;;;4.50;99.90;;;;;;5061976;28;20207;-68
2022/11/30 06:06:48;;;;;;;95.37;29.77;;;4.40;99.90;;;;;;5064467;28;20199;-69
2022/11/30 06:09:15;;;;;;;89.80;29.57;;;4.40;99.90;;;;;;5060573;28;20212;-68
2022/11/30 06:11:42;;;;;;;95.27;28.83;;;4.40;99.90;;;;;;5062220;28;20336;-68
2022/11/30 06:14:09;;;;;;;84.37;26.73;;;4.40;99.90;;;;;;5058270;28;20636;-67
2022/11/30 06:16:38;;;;;;;92.10;28.40;;;4.40;99.90;;;;;;5044608;28;20229;-69
2022/11/30 06:19:05;;;;;;;88.77;28.50;;;4.40;99.90;;;;;;5058889;28;20204;-68
2022/11/30 06:21:35;;;;;;;96.40;28.97;;;4.30;99.90;;;;;;5061398;28;20219;-68
2022/11/30 06:24:01;;;;;;;109.93;30.23;;;4.30;99.90;;;;;;5037806;28;20237;-66
2022/11/30 06:26:28;;;;;;;105.27;31.73;;;4.30;99.90;;;;;;5059146;28;20545;-67
2022/11/30 06:28:55;;;;;;;143.10;34.90;;;4.30;99.90;;;;;;5046343;28;20210;-68
2022/11/30 06:31:22;;;;;;;283.40;41.17;;;4.30;99.90;;;;;;5054685;28;20201;-68
2022/11/30 06:33:48;;;;;;;356.30;46.33;;;4.30;99.90;;;;;;5063758;28;20316;-67
2022/11/30 06:36:22;;;;;;;348.13;44.60;;;4.40;99.90;;;;;;5047680;28;20227;-68
2022/11/30 06:38:50;;;;;;;310.10;42.87;;;4.40;99.90;;;;;;5042750;28;20233;-68
2022/11/30 06:41:18;;;;;;;413.33;48.60;;;4.50;99.90;;;;;;5053247;28;20204;-68
2022/11/30 06:43:46;;;;;;;393.63;46.53;;;4.50;99.90;;;;;;5055723;28;20251;-69
2022/11/30 06:46:12;;;;;;;247.63;38.13;;;4.60;99.90;;;;;;5060403;28;20240;-68
2022/11/30 06:48:39;;;;;;;174.77;34.87;;;4.60;99.90;;;;;;5057286;28;20694;-69
2022/11/30 06:51:09;;;;;;;157.73;40.90;;;4.70;99.90;;;;;;5059499;28;20515;-66
2022/11/30 06:53:36;;;;;;;199.43;39.00;;;5.10;99.90;;;;;;5059524;28;20201;-68
2022/11/30 06:56:07;;;;;;;251.80;42.07;;;5.20;99.90;;;;;;5063013;28;20636;-67
2022/11/30 06:58:38;;;;;;;218.37;36.33;;;5.10;99.90;;;;;;5059407;28;20214;-67
2022/11/30 07:01:11;;;;;;;288.87;39.03;;;5.20;99.90;;;;;;5051368;28;20305;-67
2022/11/30 07:03:38;;;;;;;198.27;34.07;;;5.20;99.90;;;;;;5058857;28;20220;-67
2022/11/30 07:06:08;;;;;;;312.27;41.87;;;5.20;99.90;;;;;;5054137;28;20714;-67
2022/11/30 07:08:34;;;;;;;319.17;41.93;;;5.20;99.90;;;;;;5056255;28;20215;-69
2022/11/30 07:11:01;;;;;;;235.63;37.90;;;5.20;99.90;;;;;;5045643;28;20210;-68
2022/11/30 07:13:28;;;;;;;255.50;37.97;;;5.30;99.90;;;;;;5065563;28;20221;-68
2022/11/30 07:15:56;;;;;;;211.87;35.90;;;5.30;99.90;;;;;;5065432;28;20345;-68
2022/11/30 07:18:22;;;;;;;124.30;31.07;;;5.30;99.90;;;;;;5064158;28;20312;-68
2022/11/30 07:21:02;;;;;;;111.03;29.00;;;5.30;99.90;;;;;;5054075;28;20244;-67
2022/11/30 07:26:22;;;;;;;242.75;48.33;;;5.30;99.90;;;;;;5064357;28;20505;-67
2022/11/30 07:28:53;;;;;;;185.97;35.10;;;5.70;99.90;;;;;;5068213;28;20198;-69
2022/11/30 07:31:21;;;;;;;131.23;31.03;;;5.70;99.90;;;;;;5072854;28;20205;-68
2022/11/30 07:33:52;;;;;;;88.93;27.00;;;5.60;99.90;;;;;;5074764;28;20200;-68
2022/11/30 07:36:21;;;;;;;89.93;28.53;;;5.50;99.90;;;;;;5065264;28;20243;-68
2022/11/30 07:38:48;;;;;;;74.50;26.93;;;5.40;99.90;;;;;;5065195;28;20238;-68
2022/11/30 07:41:15;;;;;;;83.03;27.13;;;5.60;99.90;;;;;;5063399;28;20220;-68
2022/11/30 07:43:42;;;;;;;76.63;26.30;;;5.80;99.90;;;;;;5057845;28;20213;-69
2022/11/30 07:46:11;;;;;;;74.93;25.73;;;5.60;99.90;;;;;;5063938;28;20616;-69
2022/11/30 07:48:39;;;;;;;67.40;25.53;;;5.60;99.90;;;;;;5061768;28;20216;-68
2022/11/30 07:51:10;;;;;;;75.27;26.00;;;5.80;99.90;;;;;;5062230;28;20289;-68
2022/11/30 07:53:37;;;;;;;65.30;25.47;;;5.80;99.90;;;;;;5066756;28;20911;-68
2022/11/30 07:56:13;;;;;;;76.30;26.37;;;5.70;99.90;;;;;;5063184;28;20231;-68
2022/11/30 07:58:40;;;;;;;64.60;25.03;;;5.70;99.90;;;;;;5059789;28;20645;-68
2022/11/30 08:01:09;;;;;;;62.13;25.40;;;5.70;99.90;;;;;;5064244;28;20224;-68
2022/11/30 08:03:38;;;;;;;61.43;26.23;;;6.00;99.90;;;;;;5062990;28;20207;-68
2022/11/30 08:06:11;;;;;;;61.00;24.50;;;5.80;99.90;;;;;;5057676;28;20220;-67
2022/11/30 08:08:44;;;;;;;68.80;25.87;;;5.80;99.90;;;;;;5045069;28;20281;-68
2022/11/30 08:11:13;;;;;;;70.97;25.50;;;5.80;99.90;;;;;;5060953;28;20331;-68
2022/11/30 08:13:41;;;;;;;73.47;26.57;;;5.80;99.90;;;;;;5063580;28;20296;-68
2022/11/30 08:16:11;;;;;;;53.57;24.07;;;5.90;99.90;;;;;;5057742;28;20296;-68
2022/11/30 08:18:39;;;;;;;59.60;24.63;;;5.90;99.90;;;;;;5059233;28;20216;-66
2022/11/30 08:21:08;;;;;;;62.83;25.07;;;5.90;99.90;;;;;;5063792;28;20627;-68
2022/11/30 08:23:41;;;;;;;62.03;25.17;;;6.00;99.90;;;;;;5065436;28;20250;-69
2022/11/30 08:26:13;;;;;;;66.50;26.40;;;6.00;99.90;;;;;;5061694;28;20193;-68
2022/11/30 08:28:40;;;;;;;64.10;26.57;;;6.00;99.90;;;;;;5063468;28;20203;-68
2022/11/30 08:31:15;;;;;;;70.37;27.50;;;6.00;99.90;;;;;;5064121;28;20193;-67
2022/11/30 08:33:45;;;;;;;63.30;25.73;;;6.10;99.90;;;;;;5059817;28;20272;-68
2022/11/30 08:36:19;;;;;;;73.90;27.97;;;4.30;99.90;;;;;;5062002;28;20234;-68
2022/11/30 08:38:49;;;;;;;79.03;26.77;;;6.30;99.90;;;;;;5057001;28;20264;-68
2022/11/30 08:41:18;;;;;;;76.03;28.20;;;6.10;99.90;;;;;;5061241;28;20567;-68
2022/11/30 08:43:46;;;;;;;71.17;27.17;;;6.30;99.90;;;;;;5062852;28;20199;-69
2022/11/30 08:46:15;;;;;;;83.10;29.10;;;6.30;99.90;;;;;;5054781;28;20588;-67
2022/11/30 08:49:02;;;;;;;81.23;29.37;;;6.70;99.90;;;;;;5060563;28;20207;-69
2022/11/30 08:51:48;;;;;;;81.50;30.33;;;6.30;99.90;;;;;;5043493;28;20538;-66
2022/11/30 08:54:36;;;;;;;80.90;29.57;;;6.60;99.90;;;;;;5057668;28;20219;-68
2022/11/30 08:57:02;;;;;;;85.33;31.17;;;6.70;99.90;;;;;;5059119;28;20317;-68
2022/11/30 08:59:32;;;;;;;75.93;30.17;;;6.50;99.90;;;;;;5058090;28;20705;-68
2022/11/30 09:01:59;;;;;;;79.80;30.20;;;6.60;99.90;;;;;;5059420;28;20214;-67
2022/11/30 09:04:26;;;;;;;78.47;29.30;;;6.60;99.90;;;;;;5057492;28;20201;-67
2022/11/30 09:06:57;;;;;;;85.60;30.07;;;6.60;99.90;;;;;;5060490;28;20669;-68
2022/11/30 09:09:24;;;;;;;74.40;30.03;;;6.70;99.90;;;;;;5059400;28;20207;-69
2022/11/30 09:11:51;;;;;;;74.33;28.77;;;6.70;99.90;;;;;;5063898;28;20552;-68
2022/11/30 09:14:18;;;;;;;82.50;30.57;;;6.80;99.90;;;;;;5063166;28;20212;-67
2022/11/30 09:16:44;;;;;;;72.67;28.97;;;6.80;99.90;;;;;;5061919;28;20232;-68
2022/11/30 09:19:11;;;;;;;87.67;30.93;;;6.80;99.90;;;;;;5059784;28;20567;-68
2022/11/30 09:21:38;;;;;;;80.37;31.07;;;6.80;99.90;;;;;;5059963;28;20214;-68
2022/11/30 09:24:05;;;;;;;76.77;31.30;;;6.90;99.90;;;;;;5067680;28;20297;-67
2022/11/30 09:26:32;;;;;;;77.27;30.20;;;6.90;99.90;;;;;;5063165;28;20517;-69
2022/11/30 09:28:59;;;;;;;85.00;30.83;;;6.90;99.90;;;;;;5063905;28;20657;-68
2022/11/30 09:31:26;;;;;;;86.40;30.43;;;7.00;99.90;;;;;;5048509;28;20208;-68
2022/11/30 09:33:55;;;;;;;88.80;31.57;;;7.00;99.90;;;;;;5056972;28;20219;-68
2022/11/30 09:36:26;;;;;;;83.83;32.30;;;7.00;99.90;;;;;;5075741;28;20335;-68
2022/11/30 09:38:54;;;;;;;85.57;33.23;;;7.00;99.90;;;;;;5058506;28;20567;-67
2022/11/30 09:41:27;;;;;;;100.53;35.17;;;6.90;99.90;;;;;;5063048;28;20231;-68
2022/11/30 09:44:15;;;;;;;92.50;32.53;;;7.20;99.90;;;;;;5058465;28;20235;-69
2022/11/30 09:46:49;;;;;;;86.37;33.60;;;7.30;99.90;;;;;;5055008;28;20220;-68
2022/11/30 09:49:21;;;;;;;86.97;33.87;;;7.40;99.90;;;;;;5063802;28;20213;-69
2022/11/30 09:51:51;;;;;;;82.87;33.43;;;7.50;99.90;;;;;;5061484;28;20296;-68
2022/11/30 09:54:34;;;;;;;78.10;32.17;;;7.60;99.90;;;;;;5060002;28;20661;-69
2022/11/30 09:57:16;;;;;;;76.90;31.33;;;7.60;99.90;;;;;;5056195;28;20673;-68
2022/11/30 09:59:52;;;;;;;73.60;30.70;;;7.60;99.90;;;;;;5056459;28;20224;-67
2022/11/30 10:02:21;;;;;;;66.50;28.63;;;7.60;99.90;;;;;;5058044;28;20244;-68
2022/11/30 10:04:48;;;;;;;71.67;30.80;;;7.50;99.90;;;;;;5058672;28;20208;-67
2022/11/30 10:07:25;;;;;;;69.77;29.33;;;7.40;99.90;;;;;;5056110;28;20349;-68
2022/11/30 10:10:10;;;;;;;67.27;28.50;;;7.40;99.90;;;;;;5059584;28;20609;-68
2022/11/30 10:13:35;;;;;;;68.57;30.07;;;7.30;99.90;;;;;;5062156;28;20221;-68
2022/11/30 10:16:15;;;;;;;79.07;31.33;;;7.30;99.90;;;;;;5060807;28;20576;-67
2022/11/30 10:19:00;;;;;;;105.57;32.20;;;7.20;99.90;;;;;;5059607;28;20205;-67
2022/11/30 10:21:46;;;;;;;77.43;32.40;;;7.20;99.90;;;;;;5058249;28;20210;-69
2022/11/30 10:24:27;;;;;;;75.33;31.23;;;7.20;99.90;;;;;;5058781;28;20213;-69
2022/11/30 10:26:56;;;;;;;80.97;32.17;;;7.20;99.90;;;;;;5057502;28;20626;-67
2022/11/30 10:29:34;;;;;;;80.50;31.83;;;7.20;99.90;;;;;;5065568;28;20566;-68
2022/11/30 10:32:17;;;;;;;78.40;32.33;;;7.20;99.90;;;;;;5056266;28;20243;-69
2022/11/30 10:34:50;;;;;;;71.10;30.97;;;7.20;99.90;;;;;;5063102;28;20227;-68
2022/11/30 10:37:20;;;;;;;83.43;33.97;;;7.20;99.90;;;;;;5064343;28;20246;-68
2022/11/30 10:40:11;;;;;;;69.47;31.83;;;7.10;99.90;;;;;;5055044;28;20204;-68
2022/11/30 10:42:49;;;;;;;81.77;33.23;;;7.20;99.90;;;;;;5066282;28;20674;-68
2022/11/30 10:45:22;;;;;;;80.23;33.73;;;7.20;99.90;;;;;;5072764;28;20288;-68
2022/11/30 10:48:30;;;;;;;72.90;30.63;;;7.20;99.90;;;;;;5058811;28;20201;-68
2022/11/30 10:50:59;;;;;;;78.00;32.37;;;7.20;99.90;;;;;;5060508;28;20199;-67
2022/11/30 10:53:26;;;;;;;83.20;31.60;;;7.20;99.90;;;;;;5062350;28;20842;-66
2022/11/30 10:56:07;;;;;;;75.77;30.63;;;7.20;99.90;;;;;;5041807;28;20212;-68
2022/11/30 10:58:57;;;;;;;71.53;31.33;;;7.20;99.90;;;;;;5060183;28;20402;-69
2022/11/30 11:01:43;;;;;;;79.10;31.57;;;7.30;99.90;;;;;;5061229;28;20220;-67
2022/11/30 11:04:21;;;;;;;68.23;29.03;;;7.30;99.90;;;;;;5058635;28;20204;-68
2022/11/30 11:06:53;;;;;;;63.77;28.70;;;7.40;99.90;;;;;;5062317;28;20236;-69
2022/11/30 11:09:36;;;;;;;64.17;28.70;;;7.50;99.90;;;;;;5061930;28;20289;-68
2022/11/30 11:12:23;;;;;;;70.27;29.13;;;7.50;99.90;;;;;;5059638;28;20576;-68
2022/11/30 11:15:16;;;;;;;60.87;27.63;;;7.50;99.90;;;;;;5057953;28;20268;-68
2022/11/30 11:17:43;;;;;;;61.30;27.47;;;7.50;99.90;;;;;;5056860;28;20294;-66
2022/11/30 11:20:27;;;;;;;64.03;27.73;;;7.50;99.90;;;;;;5063778;28;20201;-67
2022/11/30 11:22:54;;;;;;;64.27;27.27;;;7.60;99.90;;;;;;5061475;28;20287;-68
2022/11/30 11:25:30;;;;;;;58.83;27.27;;;7.60;99.90;;;;;;5045762;28;20297;-68
2022/11/30 11:28:13;;;;;;;56.13;25.50;;;7.70;99.90;;;;;;5057012;28;20575;-68
2022/11/30 11:30:40;;;;;;;55.27;24.90;;;7.80;99.90;;;;;;5037911;28;20209;-68
2022/11/30 11:33:10;;;;;;;58.93;26.80;;;7.80;99.90;;;;;;5057032;28;20282;-69
2022/11/30 11:35:40;;;;;;;45.00;22.17;;;7.90;99.90;;;;;;5060755;28;20296;-68
2022/11/30 11:38:44;;;;;;;50.17;24.27;;;7.90;99.90;;;;;;5062309;28;20248;-68
2022/11/30 11:41:24;;;;;;;47.80;23.07;;;8.00;99.90;;;;;;5061691;28;20280;-68
2022/11/30 11:44:08;;;;;;;43.50;22.53;;;8.10;99.90;;;;;;5064455;28;20275;-68
2022/11/30 11:46:57;;;;;;;46.03;20.43;;;8.20;99.90;;;;;;5070425;28;20204;-68
2022/11/30 11:49:35;;;;;;;39.10;21.67;;;8.30;99.90;;;;;;5050594;28;20224;-70
2022/11/30 11:52:05;;;;;;;40.13;21.50;;;8.40;99.90;;;;;;5064518;28;20207;-68
2022/11/30 11:54:37;;;;;;;39.93;20.27;;;8.40;99.90;;;;;;5062010;28;20636;-69
2022/11/30 11:57:08;;;;;;;38.10;21.30;;;8.40;99.90;;;;;;5065115;28;20241;-69
2022/11/30 11:59:59;;;;;;;36.70;19.87;;;8.50;99.90;;;;;;5064550;28;20235;-69
2022/11/30 12:02:51;;;;;;;36.33;20.60;;;8.50;99.90;;;;;;5063571;28;20203;-68
2022/11/30 12:05:29;;;;;;;39.70;22.00;;;8.50;99.90;;;;;;5064274;28;20292;-69
2022/11/30 12:08:08;;;;;;;41.97;21.27;;;8.50;99.90;;;;;;5048804;28;20307;-67
2022/11/30 12:10:42;;;;;;;36.33;20.13;;;8.50;99.90;;;;;;5050061;28;20205;-69
2022/11/30 12:13:23;;;;;;;39.90;20.23;;;8.50;99.90;;;;;;5068413;28;20671;-69
2022/11/30 12:15:55;;;;;;;39.67;20.83;;;8.50;99.90;;;;;;5066921;28;20655;-69
2022/11/30 12:18:51;;;;;;;39.03;19.80;;;8.50;99.90;;;;;;5064035;28;20661;-68
2022/11/30 12:21:35;;;;;;;36.17;19.87;;;8.60;99.90;;;;;;5063583;28;20553;-68
2022/11/30 12:24:20;;;;;;;35.63;19.40;;;8.60;99.90;;;;;;5064407;28;20247;-67
2022/11/30 12:27:06;;;;;;;36.90;19.97;;;8.60;99.90;;;;;;5061766;28;20298;-69
2022/11/30 12:30:05;;;;;;;39.23;20.73;;;8.60;99.90;;;;;;5058989;28;20390;-68
2022/11/30 12:32:58;;;;;;;35.37;20.37;;;8.60;99.90;;;;;;5066128;28;20683;-67
2022/11/30 12:35:45;;;;;;;36.60;20.17;;;8.60;99.90;;;;;;5063540;28;20196;-68
2022/11/30 12:38:41;;;;;;;39.13;19.97;;;8.60;99.90;;;;;;5057755;28;20247;-66
2022/11/30 12:41:21;;;;;;;37.30;20.37;;;8.60;99.90;;;;;;5044579;28;20235;-69
2022/11/30 12:44:07;;;;;;;32.77;19.93;;;8.60;99.90;;;;;;5060725;28;20203;-68
2022/11/30 12:46:41;;;;;;;33.87;19.27;;;8.60;99.90;;;;;;5066233;28;20200;-68
2022/11/30 12:49:10;;;;;;;37.20;21.33;;;8.60;99.90;;;;;;5089714;28;20196;-68
2022/11/30 12:51:55;;;;;;;34.77;19.40;;;8.60;99.90;;;;;;5068967;28;20200;-68
2022/11/30 12:54:42;;;;;;;37.20;20.77;;;8.60;99.90;;;;;;5064852;28;20203;-68
2022/11/30 12:57:22;;;;;;;38.87;21.47;;;8.50;99.90;;;;;;5060756;28;20822;-69
2022/11/30 13:00:15;;;;;;;36.23;20.77;;;8.50;99.90;;;;;;5059508;28;20363;-68
2022/11/30 13:02:51;;;;;;;36.77;20.20;;;8.50;99.90;;;;;;5059001;28;20797;-68